Redondo, Valles Caldera, New Mexico Weather observations

Data are for 10 minute period ending at time listed.
 Day   Time   Solar   Ave.   Ave.  Ave.  Vector  Max.   Baro.   Total    
  of    of     Rad.   Air    Rel.  Wind   Wind   Wind  Press.  Precip.   
Year   Day            Temp.  Hum.  Speed  Dir.   Gust                    
2014   (MST)  Kw/m2    F      %     mph   deg.    mph    mb.     in.     
-------------------------------------------------------------------------
 109    1:30   0.00   33.3    87    5.4   184    11.3   689.4    0.00 
 109    1:40   0.00   33.3    87    5.5   172    14.3   689.3    0.00 
 109    1:50   0.00   33.1    87    5.8   168    11.3   689.1    0.00 
 109    2:00   0.00   33.5    85    6.2   171    11.9   689.1    0.00 
 109    2:10   0.00   33.6    84    6.5   171    13.7   689.0    0.00 
 109    2:20   0.00   33.5    84    4.8   169     9.0   689.0    0.00 
 109    2:30   0.00   33.5    84    4.8   173     9.6   689.0    0.00 
 109    2:40   0.00   33.5    84    4.6   182    11.3   689.0    0.00 
 109    2:50   0.00   33.4    85    5.2   185    10.8   689.0    0.00 
 109    3:00   0.00   33.2    85    3.6   188     7.8   689.0    0.00 
 109    3:10   0.00   33.0    85    4.4   208    11.3   689.0    0.00 
 109    3:20   0.00   32.8    85    2.8   196     7.2   689.0    0.00 
 109    3:30   0.00   32.5    86    3.7   235     7.2   689.0    0.00 
 109    3:40   0.00   32.4    86    4.3   234    10.2   689.0    0.00 
 109    3:50   0.00   32.1    87    2.9   255     8.4   689.1    0.00 
 109    4:00   0.00   31.9    88    3.2   277     8.4   689.1    0.00 
 109    4:10   0.00   31.5    88    1.9   349     6.0   689.1    0.00 
 109    4:20   0.00   31.3    89    2.3   303     5.4   689.1    0.00 
 109    4:30   0.00   31.4    88    3.7   288     7.8   689.1    0.00 
 109    4:40   0.00   31.4    87    2.8   342     6.0   689.1    0.00 
 109    4:50   0.00   31.2    88    2.7   330     6.0   689.2    0.00 
 109    5:00   0.00   30.9    88    2.3   346     5.4   689.3    0.00 
 109    5:10   0.00   30.7    89    1.9   335     6.0   689.3    0.00 
 109    5:20   0.00   30.7    89    2.3   325     5.4   689.3    0.00 
 109    5:30   0.00   30.6    88    2.0   344     5.4   689.4    0.00 
 109    5:40   0.00   30.7    88    1.7   340     6.6   689.4    0.00 
 109    5:50   0.01   30.9    87    1.8   321     4.8   689.5    0.00 
 109    6:00   0.01   31.2    86    2.1   256     6.0   689.6    0.00 
 109    6:10   0.01   31.6    84    2.2   280     4.8   689.7    0.00 
 109    6:20   0.02   32.0    82    1.5   350     4.8   689.7    0.00 
 109    6:30   0.05   32.4    82    1.1   298     4.8   689.8    0.00 
 109    6:40   0.08   33.8    78    2.2   273     6.0   689.8    0.00 
 109    6:50   0.15   35.2    75    2.9   294     7.2   689.9    0.00 
 109    7:00   0.19   36.6    71    2.6   281     8.4   689.8    0.00 
 109    7:10   0.10   36.8    71    3.3   290     8.4   689.9    0.00 
 109    7:20   0.22   36.5    72    3.9   284     7.8   689.8    0.00 
 109    7:30   0.21   36.3    73    3.5   274     6.0   689.8    0.00 
 109    7:40   0.33   37.1    71    3.3   247     8.4   689.8    0.00 
 109    7:50   0.36   36.6    72    3.4   250     6.0   689.9    0.00 
 109    8:00   0.50   38.0    70    2.6   257     6.0   689.8    0.00 
 109    8:10   0.52   38.6    69    2.9   280     6.6   689.7    0.00 
 109    8:20   0.55   38.7    67    2.9   238     5.4   689.7    0.00 
 109    8:30   0.58   39.7    62    2.7   218     5.4   689.7    0.00 
 109    8:40   0.62   40.5    61    3.6   234     6.6   689.8    0.00 
 109    8:50   0.67   40.3    59    4.0   246     7.8   690.0    0.00 
 109    9:00   0.75   40.7    58    3.6   272     7.2   690.1    0.00 
 109    9:10   0.54   40.6    57    4.4   247     8.4   690.1    0.00 
 109    9:20   0.35   39.9    60    3.3   263     8.4   690.2    0.00 
 109    9:30   0.71   41.2    59    3.2   282     6.6   690.2    0.00 
 109    9:40   0.60   42.5    58    2.9   258     6.0   690.2    0.00 
 109    9:50   0.36   41.7    56    4.1   270     9.6   690.4    0.00 
 109   10:00   0.47   40.1    62    4.0   255     9.0   690.4    0.00 
 109   10:10   0.51   41.8    60    4.2   245    10.2   690.3    0.00 
 109   10:20   0.36   41.0    61    4.0   288     9.6   690.3    0.00 
 109   10:30   0.32   40.2    65    3.7   270     6.6   690.2    0.00 
 109   10:40   0.46   40.3    66    4.2   268     8.4   690.1    0.00 
 109   10:50   0.79   41.2    64    4.2   274     8.4   689.8    0.00 
 109   11:00   0.94   43.0    59    3.9   265     7.8   689.8    0.00 
 109   11:10   1.07   43.8    59    4.8   292    11.3   689.7    0.00 
 109   11:20   1.04   44.0    58    4.4   264     9.0   689.7    0.00 
 109   11:30   0.98   44.9    59    3.8   276     9.0   689.7    0.00 
 109   11:40   0.60   45.1    55    4.2   306    10.2   689.8    0.00 
 109   11:50   0.61   44.8    55    3.8   290     7.8   689.8    0.00 
 109   12:00   0.48   43.6    58    4.4   303     8.4   689.8    0.00 
 109   12:10   0.73   44.5    58    4.1   323     7.2   689.5    0.00 
 109   12:20   0.61   45.6    52    4.3   319     7.8   689.4    0.00 
 109   12:30   0.58   45.6    54    4.5   285     9.0   689.5    0.01 
 109   12:40   0.42   44.1    58    4.3   293    10.2   689.5    0.00 
 109   12:50   0.37   44.2    57    3.6   321     7.8   689.5    0.00 
 109   13:00   0.28   44.0    56    3.2   302     7.2   689.4    0.00 
 109   13:10   0.21   42.9    59    2.8   298     7.2   689.3    0.00 
 109   13:20   0.14   42.8    60    2.2   283     6.0   689.3    0.00 
 109   13:30   0.07   39.9    71    4.1   164     9.0   689.3    0.00 
 109   13:40   0.05   37.1    79    4.3   186     8.4   689.2    0.00 
 109   13:50   0.05   36.4    81    3.3   188     8.4   688.9    0.00 
 109   14:00   0.06   36.2    82    2.8   172     6.0   688.9    0.01 
 109   14:10   0.06   36.9    80    3.8   206     8.4   688.9    0.00 
 109   14:20   0.07   36.4    82    4.0   234     8.4   688.9    0.00 
 109   14:30   0.06   35.2    86    2.8   218     6.0   688.8    0.00 
 109   14:40   0.06   34.6    89    2.5   244     5.4   688.9    0.00 
 109   14:50   0.07   34.0    90    3.3   208     7.2   688.9    0.00 
 109   15:00   0.06   33.6    92    3.0   310     6.0   688.9    0.00 
 109   15:10   0.07   33.4    93    1.5   350     3.6   688.9    0.00 
 109   15:20   0.14   34.1    94    0.7   332     3.0   688.8    0.00 
 109   15:30   0.16   35.3    92    1.7   325     4.2   688.7    0.00 
 109   15:40   0.18   36.2    90    2.5   335     4.8   688.7    0.01 
 109   15:50   0.17   36.7    88    2.6   335     3.6   688.7    0.00 
 109   16:00   0.15   36.4    88    1.9   325     3.0   688.7    0.00 
 109   16:10   0.14   36.4    89    2.0   333     4.8   688.8    0.00 
 109   16:20   0.12   35.5    88    2.6   291     6.0   688.7    0.00 
 109   16:30   0.11   34.9    90    2.9   296     5.4   688.7    0.00 
 109   16:40   0.09   35.0    90    1.9   308     4.8   688.7    0.00 
 109   16:50   0.08   35.3    88    0.9   298     4.2   688.8    0.00 
 109   17:00   0.07   35.4    87    0.8   307     3.0   688.8    0.00 
 109   17:10   0.07   35.5    85    1.2   314     3.6   688.8    0.00 
 109   17:20   0.05   35.2    85    1.4   294     4.2   688.8    0.00 
 109   17:30   0.04   35.1    85    1.1   313     3.0   688.8    0.00 
 109   17:40   0.03   35.0    86    1.5   328     3.6   688.9    0.00 
 109   17:50   0.02   34.9    90    2.1   316     4.8   688.9    0.00 
 109   18:00   0.02   34.1    87    3.1   320     6.0   688.9    0.00 
 109   18:10   0.01   33.9    87    2.9   319     5.4   688.9    0.00 
 109   18:20   0.01   33.7    87    3.7   328     9.0   688.9    0.00 
 109   18:30   0.00   33.4    88    3.7   308    11.3   688.9    0.00 
 109   18:40   0.00   32.8    91    3.0   321     7.8   689.0    0.00 
 109   18:50   0.00   32.5    93    3.6   315     7.8   689.0    0.00 
 109   19:00   0.00   32.3    94    3.7   314     9.0   689.0    0.00 
 109   19:10   0.00   32.3    94    3.4   316     7.2   689.1    0.00 
 109   19:20   0.00   32.4    94    3.2   319     6.6   689.2    0.00 
 109   19:30   0.00   32.6    93    3.4   316     6.6   689.3    0.00 
 109   19:40   0.00   32.8    92    2.9   323     6.6   689.3    0.00 
 109   19:50   0.00   33.4    88    2.6   320     5.4   689.4    0.00 
 109   20:00   0.00   33.7    86    2.4   313     5.4   689.5    0.00 
 109   20:10   0.00   33.7    86    1.9   326     4.8   689.5    0.00 
 109   20:20   0.00   33.6    86    2.4   325     6.0   689.5    0.00 
 109   20:30   0.00   33.8    84    3.4   325     7.8   689.5    0.00 
 109   20:40   0.00   34.1    83    3.3   334     9.6   689.6    0.00 
 109   20:50   0.00   34.0    84    2.7   324     6.6   689.7    0.00 
 109   21:00   0.00   33.7    86    2.1   294     3.6   689.7    0.00 
 109   21:10   0.00   33.5    87    1.8   301     3.6   689.7    0.00 
 109   21:20   0.00   33.3    88    2.0   328     5.4   689.6    0.00 
 109   21:30   0.00   33.4    85    3.1   326     6.0   689.6    0.00 
 109   21:40   0.00   33.7    83    3.5   318     7.8   689.5    0.00 
 109   21:50   0.00   33.5    84    3.4   325     8.4   689.3    0.00 
 109   22:00   0.00   33.3    85    3.4   323     7.8   689.3    0.00 
 109   22:10   0.00   33.3    85    3.0   323     6.6   689.4    0.00 
 109   22:20   0.00   33.3    84    3.2   326     6.0   689.5    0.00 
 109   22:30   0.00   33.5    82    4.4   323     9.6   689.4    0.00 
 109   22:40   0.00   33.7    82    4.6   321     9.0   689.3    0.00 
 109   22:50   0.00   33.5    83    4.5   326     9.0   689.4    0.00 
 109   23:00   0.00   33.2    85    4.5   318     8.4   689.4    0.00 
 109   23:10   0.00   32.7    88    4.7   323     9.6   689.4    0.00 
 109   23:20   0.00   32.3    89    4.1   322     7.8   689.5    0.00 
 109   23:30   0.00   32.1    91    4.6   312     9.6   689.4    0.00 
 109   23:40   0.00   32.0    92    3.7   324     6.0   689.5    0.00 
 109   23:50   0.00   32.0    92    4.0   329     9.6   689.6    0.00 
 110    0:00   0.00   32.2    91    4.1   326     8.4   689.6    0.00 
 110    0:10   0.00   32.4    90    4.4   313     7.8   689.6    0.00 
 110    0:20   0.00   32.2    91    4.7   315     9.0   689.5    0.00 
 110    0:30   0.00   32.1    93    4.9   318     8.4   689.5    0.00 
 110    0:40   0.00   32.0    94    4.8   324     9.6   689.4    0.00 
 110    0:50   0.00   31.9    94    4.7   322     8.4   689.4    0.00 
 110    1:00   0.00   31.7    94    1.9   322     7.2   689.3    0.00 
 110    1:10   0.00   32.1    91    0.0     0     0.0   689.1    0.00 
 110    1:20   0.00   32.8    85    3.4   325    10.8   689.0    0.00 

Return to Redondo, Valles Caldera graphs page.


Western Regional Climate Center,wrcc@dri.edu